Terminal Aerodrome Forecast
Issued by NWS Missoula, MT

Home | Current Version | Previous Version | Text Only | Print | Product List | Glossary On
Versions: 1 2 3 4 5 6 7 8 9 10 11 12 13 14
000
FTUS45 KMSO 212324
TAFBTM
TAF
KBTM 212324Z 2200/2224 30016G24KT P6SM -SHSN OVC040
      TEMPO 2200/2202 2SM -SN OVC025
     FM220200 30010KT P6SM VCSH OVC050
     FM220700 30010KT 6SM -SHSN BKN035 OVC050=

USA.gov is the U.S. government's official web portal to all federal, state and local government web resources and services.